Time;durP1;ratioP1;P1;durP2;ratioP2;P2;SDS_P1;SDS_P2;PMS_P1;PMS_P2;Temp;Humidity;BMP_temperature;BMP_pressure;BME280_temperature;BME280_humidity;BME280_pressure;Samples;Min_cycle;Max_cycle;Signal;HPM_P1;HPM_P2
2023/12/12 00:01:01;;;;;;;;;;;10.70;93.80;;;;;;5092169;28;19949;-76
2023/12/12 00:03:26;;;;;;;;;;;10.70;93.80;;;;;;5092854;28;19904;-76
2023/12/12 00:05:52;;;;;;;;;;;10.70;93.70;;;;;;5074932;28;19915;-74
2023/12/12 00:08:18;;;;;;;;;;;10.70;93.80;;;;;;5092136;28;20003;-75
2023/12/12 00:10:43;;;;;;;;;;;10.70;93.70;;;;;;5074140;28;19918;-75
2023/12/12 00:13:09;;;;;;;;;;;10.60;93.70;;;;;;5092252;28;19946;-75
2023/12/12 00:15:34;;;;;;;;;;;10.60;93.70;;;;;;5091925;28;20283;-75
2023/12/12 00:18:00;;;;;;;;;;;10.60;93.70;;;;;;5073775;28;19923;-75
2023/12/12 00:20:25;;;;;;;;;;;10.60;93.70;;;;;;5091932;28;19908;-75
2023/12/12 00:22:51;;;;;;;;;;;10.50;93.70;;;;;;5073701;28;19912;-74
2023/12/12 00:25:16;;;;;;;;;;;10.50;93.70;;;;;;5073470;28;19923;-75
2023/12/12 00:27:42;;;;;;;;;;;10.50;93.70;;;;;;5091853;28;19908;-75
2023/12/12 00:30:08;;;;;;;;;;;10.40;93.70;;;;;;5091986;28;19912;-75
2023/12/12 00:32:34;;;;;;;;;;;10.40;93.70;;;;;;5091777;28;19908;-75
2023/12/12 00:34:59;;;;;;;;;;;10.40;93.70;;;;;;5057156;28;20411;-75
2023/12/12 00:37:25;;;;;;;;;;;10.40;93.70;;;;;;5073620;28;20293;-75
2023/12/12 00:39:50;;;;;;;;;;;10.30;93.70;;;;;;5091843;28;19908;-75
2023/12/12 00:42:16;;;;;;;;;;;10.30;93.70;;;;;;5091963;28;19912;-75
2023/12/12 00:44:41;;;;;;;;;;;10.30;93.70;;;;;;5056724;28;19985;-75
2023/12/12 00:47:07;;;;;;;;;;;10.20;93.70;;;;;;5091526;28;19904;-75
2023/12/12 00:49:33;;;;;;;;;;;10.20;93.70;;;;;;5091650;28;19911;-75
2023/12/12 00:51:58;;;;;;;;;;;10.20;93.80;;;;;;5073641;28;19908;-75
2023/12/12 00:54:24;;;;;;;;;;;10.20;93.80;;;;;;5073212;28;19912;-75
2023/12/12 00:56:49;;;;;;;;;;;10.20;93.80;;;;;;5091528;28;19962;-75
2023/12/12 00:59:15;;;;;;;;;;;10.20;93.80;;;;;;5073414;28;19912;-75
2023/12/12 01:01:40;;;;;;;;;;;10.10;93.80;;;;;;5091876;28;19908;-75
2023/12/12 01:04:07;;;;;;;;;;;10.10;93.80;;;;;;5073407;28;19935;-75
2023/12/12 01:06:33;;;;;;;;;;;10.10;93.80;;;;;;5091401;28;19904;-75
2023/12/12 01:08:59;;;;;;;;;;;10.10;93.80;;;;;;5091654;28;19911;-75
2023/12/12 01:11:24;;;;;;;;;;;10.10;93.80;;;;;;5091745;28;19908;-75
2023/12/12 01:13:50;;;;;;;;;;;10.10;93.80;;;;;;5092962;28;19911;-75
2023/12/12 01:16:15;;;;;;;;;;;10.10;93.80;;;;;;5095476;28;20368;-75
2023/12/12 01:18:41;;;;;;;;;;;10.10;93.80;;;;;;5095411;28;19951;-75
2023/12/12 01:21:07;;;;;;;;;;;10.10;93.90;;;;;;5077291;28;19912;-75
2023/12/12 01:23:48;;;;;;;;;;;10.10;93.90;;;;;;5077205;28;20418;-75
2023/12/12 01:26:14;;;;;;;;;;;10.10;93.90;;;;;;5095218;28;19916;-75
2023/12/12 01:28:40;;;;;;;;;;;10.20;93.90;;;;;;5095176;28;20411;-74
2023/12/12 01:31:05;;;;;;;;;;;10.20;93.90;;;;;;5095251;28;19910;-75
2023/12/12 01:33:31;;;;;;;;;;;10.20;93.90;;;;;;5095277;28;19947;-75
2023/12/12 01:35:56;;;;;;;;;;;10.20;93.90;;;;;;5094998;28;19915;-74
2023/12/12 01:38:22;;;;;;;;;;;10.30;93.90;;;;;;5094995;28;20378;-75
2023/12/12 01:40:47;;;;;;;;;;;10.30;93.80;;;;;;5095064;28;19912;-75
2023/12/12 01:43:22;;;;;;;;;;;10.30;93.80;;;;;;5060173;28;19951;-75
2023/12/12 01:45:47;;;;;;;;;;;10.30;93.80;;;;;;5094939;28;19904;-75
2023/12/12 01:48:13;;;;;;;;;;;10.30;93.80;;;;;;5076784;28;19915;-75
2023/12/12 01:50:38;;;;;;;;;;;10.30;93.80;;;;;;5094901;28;19908;-74
2023/12/12 01:53:04;;;;;;;;;;;10.30;93.80;;;;;;5076496;28;19912;-75
2023/12/12 01:55:31;;;;;;;;;;;10.30;93.80;;;;;;5094719;28;19908;-74
2023/12/12 01:57:56;;;;;;;;;;;10.30;93.80;;;;;;5076486;28;20261;-74
2023/12/12 02:00:22;;;;;;;;;;;10.30;93.80;;;;;;5094690;28;20057;-74
2023/12/12 02:02:48;;;;;;;;;;;10.30;93.80;;;;;;5076506;28;19912;-75
2023/12/12 02:05:14;;;;;;;;;;;10.30;93.80;;;;;;5076374;28;19912;-75
2023/12/12 02:07:40;;;;;;;;;;;10.30;93.80;;;;;;5076461;28;20317;-75
2023/12/12 02:10:06;;;;;;;;;;;10.30;93.80;;;;;;5094850;28;20325;-75
2023/12/12 02:12:32;;;;;;;;;;;10.40;93.90;;;;;;5094477;28;19919;-75
2023/12/12 02:14:58;;;;;;;;;;;10.40;93.90;;;;;;5076145;28;19951;-75
2023/12/12 02:17:24;;;;;;;;;;;10.50;93.90;;;;;;5059345;28;19916;-75
2023/12/12 02:19:50;;;;;;;;;;;10.50;93.90;;;;;;5094350;28;19914;-75
2023/12/12 02:22:15;;;;;;;;;;;10.60;93.80;;;;;;5076135;28;19908;-75
2023/12/12 02:24:41;;;;;;;;;;;10.60;93.80;;;;;;5075118;28;20344;-75
2023/12/12 02:27:06;;;;;;;;;;;10.60;93.80;;;;;;5093751;28;20052;-75
2023/12/12 02:29:32;;;;;;;;;;;10.60;93.80;;;;;;5094490;28;19911;-75
2023/12/12 02:31:58;;;;;;;;;;;10.60;93.80;;;;;;5094650;28;19905;-75
2023/12/12 02:34:23;;;;;;;;;;;10.60;93.80;;;;;;5075878;28;19919;-75
2023/12/12 02:36:49;;;;;;;;;;;10.70;93.80;;;;;;5094616;28;19912;-74
2023/12/12 02:39:15;;;;;;;;;;;10.60;93.80;;;;;;5076082;28;20411;-75
2023/12/12 02:41:40;;;;;;;;;;;10.60;93.70;;;;;;5093993;28;19908;-74
2023/12/12 02:44:06;;;;;;;;;;;10.60;93.70;;;;;;5075805;28;19915;-75
2023/12/12 02:46:31;;;;;;;;;;;10.70;93.80;;;;;;5075951;28;19912;-75
2023/12/12 02:48:57;;;;;;;;;;;10.60;93.70;;;;;;5094109;28;19915;-74
2023/12/12 02:51:22;;;;;;;;;;;10.60;93.70;;;;;;5093829;28;20067;-74
2023/12/12 02:53:48;;;;;;;;;;;10.60;93.70;;;;;;5093818;28;19927;-74
2023/12/12 02:56:13;;;;;;;;;;;10.60;93.80;;;;;;5093601;28;19912;-74
2023/12/12 02:58:39;;;;;;;;;;;10.60;93.80;;;;;;5093501;28;20383;-75
2023/12/12 03:01:04;;;;;;;;;;;10.70;93.80;;;;;;5093521;28;19919;-75
2023/12/12 03:03:30;;;;;;;;;;;10.70;93.80;;;;;;5093523;28;19994;-75
2023/12/12 03:05:55;;;;;;;;;;;10.70;93.70;;;;;;5093352;28;19965;-75
2023/12/12 03:08:21;;;;;;;;;;;10.80;93.70;;;;;;5075156;28;19907;-75
2023/12/12 03:10:47;;;;;;;;;;;10.80;93.70;;;;;;5075237;28;19912;-75
2023/12/12 03:13:12;;;;;;;;;;;10.80;93.70;;;;;;5075266;28;20348;-75
2023/12/12 03:15:38;;;;;;;;;;;10.90;93.80;;;;;;5074982;28;20348;-75
2023/12/12 03:18:03;;;;;;;;;;;10.90;93.70;;;;;;5093077;28;20011;-75
2023/12/12 03:20:29;;;;;;;;;;;10.90;93.70;;;;;;5093321;28;19904;-75
2023/12/12 03:22:55;;;;;;;;;;;10.90;93.70;;;;;;5075054;28;20375;-75
2023/12/12 03:25:20;;;;;;;;;;;10.90;93.70;;;;;;5092926;28;20391;-75
2023/12/12 03:27:46;;;;;;;;;;;10.90;93.70;;;;;;5093139;28;20314;-75
2023/12/12 03:30:11;;;;;;;;;;;10.90;93.70;;;;;;5093435;28;20039;-75
2023/12/12 03:32:37;;;;;;;;;;;10.90;93.60;;;;;;5092934;28;19904;-75
2023/12/12 03:35:04;;;;;;;;;;;10.90;93.70;;;;;;5092816;28;19912;-75
2023/12/12 03:37:29;;;;;;;;;;;10.80;93.70;;;;;;5092533;28;20010;-75
2023/12/12 03:39:55;;;;;;;;;;;10.80;93.70;;;;;;5092834;28;20596;-75
2023/12/12 03:42:20;;;;;;;;;;;10.80;93.80;;;;;;5093185;28;20279;-75
2023/12/12 03:44:46;;;;;;;;;;;10.80;93.80;;;;;;5074638;28;20261;-74
2023/12/12 03:47:12;;;;;;;;;;;10.80;93.90;;;;;;5074825;28;20271;-75
2023/12/12 03:49:37;;;;;;;;;;;10.80;93.80;;;;;;5092613;28;20279;-75
2023/12/12 03:52:03;;;;;;;;;;;10.80;93.80;;;;;;5074468;28;19912;-75
2023/12/12 03:54:31;;;;;;;;;;;10.80;93.80;;;;;;5092373;28;19904;-75
2023/12/12 03:56:56;;;;;;;;;;;10.80;93.90;;;;;;5092316;28;20006;-75
2023/12/12 03:59:22;;;;;;;;;;;10.80;93.90;;;;;;5092364;28;19936;-75
2023/12/12 04:01:48;;;;;;;;;;;10.80;93.90;;;;;;5092315;28;20322;-75
2023/12/12 04:04:14;;;;;;;;;;;10.80;93.90;;;;;;5074163;28;19954;-75
2023/12/12 04:06:44;;;;;;;;;;;10.80;93.90;;;;;;5057485;28;19912;-75
2023/12/12 04:09:09;;;;;;;;;;;10.80;93.90;;;;;;5057357;28;19915;-75
2023/12/12 04:11:35;;;;;;;;;;;10.80;93.80;;;;;;5092270;28;20006;-75
2023/12/12 04:14:00;;;;;;;;;;;10.80;93.80;;;;;;5092050;28;19911;-75
2023/12/12 04:16:26;;;;;;;;;;;10.70;93.80;;;;;;5073955;28;20017;-75
2023/12/12 04:18:52;;;;;;;;;;;10.70;93.80;;;;;;5092317;28;19912;-74
2023/12/12 04:21:17;;;;;;;;;;;10.60;93.90;;;;;;5092145;28;19911;-75
2023/12/12 04:23:43;;;;;;;;;;;10.60;93.90;;;;;;5073966;28;19919;-75
2023/12/12 04:26:09;;;;;;;;;;;10.60;93.90;;;;;;5091784;28;19919;-75
2023/12/12 04:28:35;;;;;;;;;;;10.60;93.90;;;;;;5057113;28;20260;-74
2023/12/12 04:31:00;;;;;;;;;;;10.60;93.80;;;;;;5073711;28;19987;-75
2023/12/12 04:33:26;;;;;;;;;;;10.50;93.90;;;;;;5073866;28;19933;-75
2023/12/12 04:35:52;;;;;;;;;;;10.50;93.90;;;;;;5073822;28;19919;-75
2023/12/12 04:38:17;;;;;;;;;;;10.50;93.90;;;;;;5056962;28;19912;-75
2023/12/12 04:40:43;;;;;;;;;;;10.40;93.80;;;;;;5091835;28;20010;-75
2023/12/12 04:43:08;;;;;;;;;;;10.40;93.90;;;;;;5073431;28;19931;-75
2023/12/12 04:45:34;;;;;;;;;;;10.40;93.90;;;;;;5091447;28;20302;-75
2023/12/12 04:48:00;;;;;;;;;;;10.40;93.90;;;;;;5090684;28;19955;-75
2023/12/12 04:50:25;;;;;;;;;;;10.40;93.90;;;;;;5091733;28;19915;-75
2023/12/12 04:52:51;;;;;;;;;;;10.40;93.90;;;;;;5073453;28;19915;-75
2023/12/12 04:55:17;;;;;;;;;;;10.40;94.10;;;;;;5091270;28;20279;-74
2023/12/12 04:57:43;;;;;;;;;;;10.40;93.90;;;;;;5091141;28;19912;-74
2023/12/12 05:00:13;;;;;;;;;;;10.40;93.80;;;;;;5073279;28;19912;-74
2023/12/12 05:02:42;;;;;;;;;;;10.30;93.80;;;;;;5091489;28;19935;-75
2023/12/12 05:05:08;;;;;;;;;;;10.30;93.70;;;;;;5073123;28;19991;-75
2023/12/12 05:07:34;;;;;;;;;;;10.20;93.70;;;;;;5091261;28;20007;-74
2023/12/12 05:09:59;;;;;;;;;;;10.10;93.60;;;;;;5091367;28;19908;-75
2023/12/12 05:12:25;;;;;;;;;;;10.00;93.60;;;;;;5073220;28;20279;-75
2023/12/12 05:14:51;;;;;;;;;;;9.90;93.60;;;;;;5091361;28;20375;-74
2023/12/12 05:17:16;;;;;;;;;;;9.80;93.60;;;;;;5091235;28;19912;-74
2023/12/12 05:19:42;;;;;;;;;;;9.70;93.80;;;;;;5091418;28;19908;-74
2023/12/12 05:22:07;;;;;;;;;;;9.60;93.60;;;;;;5091310;28;20006;-74
2023/12/12 05:24:33;;;;;;;;;;;9.50;93.60;;;;;;5073231;28;20295;-75
2023/12/12 05:26:59;;;;;;;;;;;9.40;93.60;;;;;;5073177;28;19920;-75
2023/12/12 05:29:24;;;;;;;;;;;9.40;93.70;;;;;;5073250;28;19912;-75
2023/12/12 05:31:50;;;;;;;;;;;9.30;93.70;;;;;;5091276;28;20195;-75
2023/12/12 05:34:15;;;;;;;;;;;9.30;93.70;;;;;;5091118;28;19912;-75
2023/12/12 05:36:41;;;;;;;;;;;9.20;93.60;;;;;;5091081;28;20383;-75
2023/12/12 05:39:09;;;;;;;;;;;9.10;93.60;;;;;;5072996;28;20240;-75
2023/12/12 05:41:35;;;;;;;;;;;9.10;93.60;;;;;;5073462;28;20280;-74
2023/12/12 05:44:01;;;;;;;;;;;9.00;93.50;;;;;;5072582;28;19908;-74
2023/12/12 05:46:26;;;;;;;;;;;8.90;93.50;;;;;;5073008;28;20003;-75
2023/12/12 05:48:52;;;;;;;;;;;8.80;93.60;;;;;;5091143;28;19909;-75
2023/12/12 05:51:17;;;;;;;;;;;8.80;93.50;;;;;;5090921;28;19915;-74
2023/12/12 05:53:43;;;;;;;;;;;8.70;93.60;;;;;;5091110;28;19912;-74
2023/12/12 05:56:09;;;;;;;;;;;8.70;93.70;;;;;;5090839;28;19914;-75
2023/12/12 05:58:34;;;;;;;;;;;8.70;93.70;;;;;;5090825;28;20348;-75
2023/12/12 06:01:00;;;;;;;;;;;8.70;93.80;;;;;;5094049;28;19919;-75
2023/12/12 06:03:25;;;;;;;;;;;8.80;93.80;;;;;;5094790;28;20364;-75
2023/12/12 06:05:51;;;;;;;;;;;8.90;93.80;;;;;;5094381;28;19919;-75
2023/12/12 06:08:16;;;;;;;;;;;8.90;93.70;;;;;;5094572;28;19912;-75
2023/12/12 06:10:42;;;;;;;;;;;9.00;93.70;;;;;;5094508;28;19961;-75
2023/12/12 06:13:08;;;;;;;;;;;9.10;93.80;;;;;;5076309;28;19912;-75
2023/12/12 06:15:33;;;;;;;;;;;9.20;93.80;;;;;;5094350;28;20262;-75
2023/12/12 06:17:59;;;;;;;;;;;9.20;93.70;;;;;;5076078;28;19919;-75
2023/12/12 06:20:25;;;;;;;;;;;9.30;93.70;;;;;;5076209;28;20006;-75
2023/12/12 06:22:50;;;;;;;;;;;9.30;93.70;;;;;;5076313;28;20024;-75
2023/12/12 06:25:16;;;;;;;;;;;9.40;93.70;;;;;;5075705;28;19920;-75
2023/12/12 06:27:41;;;;;;;;;;;9.40;93.70;;;;;;5094207;28;19953;-75
2023/12/12 06:30:07;;;;;;;;;;;9.40;93.70;;;;;;5094006;28;19914;-75
2023/12/12 06:32:33;;;;;;;;;;;9.50;93.70;;;;;;5094088;28;19982;-75
2023/12/12 06:34:59;;;;;;;;;;;9.50;93.70;;;;;;5093927;28;19955;-75
2023/12/12 06:37:25;;;;;;;;;;;9.50;93.70;;;;;;5093723;28;19986;-75
2023/12/12 06:39:51;;;;;;;;;;;9.60;93.70;;;;;;5093653;28;20183;-75
2023/12/12 06:42:17;;;;;;;;;;;9.60;93.90;;;;;;5093810;28;19904;-75
2023/12/12 06:44:42;;;;;;;;;;;9.60;93.70;;;;;;5093506;28;20252;-74
2023/12/12 06:47:09;;;;;;;;;;;9.60;93.60;;;;;;5093634;28;19916;-75
2023/12/12 06:49:34;;;;;;;;;;;9.60;93.70;;;;;;5093554;28;20573;-75
2023/12/12 06:52:01;;;;;;;;;;;9.60;93.60;;;;;;5075548;28;19912;-75
2023/12/12 06:54:27;;;;;;;;;;;9.60;93.60;;;;;;5093449;28;19908;-74
2023/12/12 06:56:52;;;;;;;;;;;9.60;93.60;;;;;;5093415;28;19931;-74
2023/12/12 06:59:18;;;;;;;;;;;9.50;93.60;;;;;;5093331;28;19958;-74
2023/12/12 07:01:43;;;;;;;;;;;9.50;93.60;;;;;;5075252;28;19912;-75
2023/12/12 07:04:09;;;;;;;;;;;9.50;93.60;;;;;;5075372;28;19911;-75
2023/12/12 07:06:35;;;;;;;;;;;9.50;93.60;;;;;;5093417;28;19912;-74
2023/12/12 07:09:00;;;;;;;;;;;9.50;93.60;;;;;;5092980;28;19908;-74
2023/12/12 07:11:26;;;;;;;;;;;9.40;93.60;;;;;;5074105;28;19916;-74
2023/12/12 07:13:51;;;;;;;;;;;9.40;93.90;;;;;;5092867;28;19909;-75
2023/12/12 07:16:18;;;;;;;;;;;9.40;93.70;;;;;;5092976;28;19991;-75
2023/12/12 07:18:43;;;;;;;;;;;9.40;93.70;;;;;;5075263;28;20273;-75
2023/12/12 07:21:09;;;;;;;;;;;9.50;93.60;;;;;;5093073;28;19904;-74
2023/12/12 07:23:34;;;;;;;;;;;9.40;93.50;;;;;;5093078;28;19919;-75
2023/12/12 07:26:00;;;;;;;;;;;9.40;93.50;;;;;;5074443;28;19920;-74
2023/12/12 07:28:26;;;;;;;;;;;9.30;93.40;;;;;;5092952;28;19904;-75
2023/12/12 07:30:53;;;;;;;;;;;9.20;93.40;;;;;;5074639;28;19912;-75
2023/12/12 07:33:19;;;;;;;;;;;9.10;93.40;;;;;;5058021;28;20406;-74
2023/12/12 07:35:44;;;;;;;;;;;9.00;93.40;;;;;;5074186;28;19919;-75
2023/12/12 07:38:10;;;;;;;;;;;9.00;93.40;;;;;;5073889;28;19912;-74
2023/12/12 07:40:36;;;;;;;;;;;8.80;93.40;;;;;;5092191;28;20390;-75
2023/12/12 07:43:01;;;;;;;;;;;8.70;93.40;;;;;;5092313;28;20191;-75
2023/12/12 07:45:27;;;;;;;;;;;8.70;93.50;;;;;;5074002;28;19950;-74
2023/12/12 07:47:52;;;;;;;;;;;8.60;93.50;;;;;;5092408;28;19908;-75
2023/12/12 07:50:18;;;;;;;;;;;8.60;93.50;;;;;;5074096;28;20348;-75
2023/12/12 07:52:44;;;;;;;;;;;8.50;93.50;;;;;;5092325;28;19912;-75
2023/12/12 07:55:09;;;;;;;;;;;8.50;93.50;;;;;;5073604;28;19908;-74
2023/12/12 07:57:35;;;;;;;;;;;8.40;93.50;;;;;;5091972;28;19916;-74
2023/12/12 08:00:01;;;;;;;;;;;8.40;93.60;;;;;;5073460;28;19908;-75
2023/12/12 08:02:27;;;;;;;;;;;8.40;93.50;;;;;;5073704;28;19908;-75
2023/12/12 08:04:53;;;;;;;;;;;8.40;93.60;;;;;;5092079;28;19911;-74
2023/12/12 08:07:18;;;;;;;;;;;8.40;93.60;;;;;;5073582;28;19915;-75
2023/12/12 08:09:44;;;;;;;;;;;8.40;93.60;;;;;;5092326;28;19916;-75
2023/12/12 08:12:09;;;;;;;;;;;8.40;93.60;;;;;;5073609;28;19911;-75
2023/12/12 08:14:35;;;;;;;;;;;8.40;93.50;;;;;;5073260;28;19965;-75
2023/12/12 08:17:00;;;;;;;;;;;8.40;93.50;;;;;;5073812;28;19912;-75
2023/12/12 08:19:26;;;;;;;;;;;8.30;93.40;;;;;;5072812;28;19916;-74
2023/12/12 08:21:51;;;;;;;;;;;8.30;93.40;;;;;;5073347;28;19912;-74
2023/12/12 08:24:17;;;;;;;;;;;8.30;93.50;;;;;;5090658;28;19915;-74
2023/12/12 08:26:43;;;;;;;;;;;8.30;93.40;;;;;;5091426;28;19920;-74
2023/12/12 08:29:09;;;;;;;;;;;8.30;93.40;;;;;;5091766;28;19910;-74
2023/12/12 08:31:35;;;;;;;;;;;8.20;93.40;;;;;;5091618;28;19908;-75
2023/12/12 08:34:01;;;;;;;;;;;8.20;93.40;;;;;;5091021;28;19908;-75
2023/12/12 08:36:27;;;;;;;;;;;8.20;93.40;;;;;;5072943;28;19904;-75
2023/12/12 08:38:53;;;;;;;;;;;8.20;93.40;;;;;;5090954;28;19912;-75
2023/12/12 08:41:22;;;;;;;;;;;8.20;93.40;;;;;;5073138;28;19915;-74
2023/12/12 08:43:48;;;;;;;;;;;8.10;93.40;;;;;;5091193;28;20437;-74
2023/12/12 08:46:13;;;;;;;;;;;8.10;93.40;;;;;;5073457;28;19955;-74
2023/12/12 08:48:39;;;;;;;;;;;8.10;93.40;;;;;;5091391;28;19911;-75
2023/12/12 08:51:05;;;;;;;;;;;8.10;93.40;;;;;;5091301;28;19959;-75
2023/12/12 08:53:30;;;;;;;;;;;8.10;93.40;;;;;;5072647;28;20408;-75
2023/12/12 08:55:56;;;;;;;;;;;8.10;93.40;;;;;;5056090;28;19912;-74
2023/12/12 08:58:27;;;;;;;;;;;8.10;93.50;;;;;;5072705;28;20045;-75
2023/12/12 09:00:53;;;;;;;;;;;8.10;93.50;;;;;;5072678;28;19911;-74
2023/12/12 09:03:19;;;;;;;;;;;8.10;93.50;;;;;;5098808;28;19914;-73
2023/12/12 09:05:45;;;;;;;;;;;8.10;93.50;;;;;;5111073;28;19908;-73
2023/12/12 09:08:10;;;;;;;;;;;8.10;93.50;;;;;;5111405;28;19957;-73
2023/12/12 09:10:36;;;;;;;;;;;8.10;93.60;;;;;;5106613;28;19972;-73
2023/12/12 09:13:02;;;;;;;;;;;8.20;93.60;;;;;;5100524;28;19908;-73
2023/12/12 09:15:28;;;;;;;;;;;8.20;93.80;;;;;;5075514;28;20002;-74
2023/12/12 09:17:53;;;;;;;;;;;8.30;93.60;;;;;;5110444;28;20002;-74
2023/12/12 09:20:19;;;;;;;;;;;8.40;93.60;;;;;;5110906;28;19916;-73
2023/12/12 09:22:44;;;;;;;;;;;8.40;93.60;;;;;;5092346;28;20362;-73
2023/12/12 09:25:10;;;;;;;;;;;8.50;93.60;;;;;;5110233;28;20004;-74
2023/12/12 09:27:36;;;;;;;;;;;8.50;93.60;;;;;;5110685;28;19947;-73
2023/12/12 09:30:01;;;;;;;;;;;8.50;93.50;;;;;;5091223;28;19912;-73
2023/12/12 09:32:27;;;;;;;;;;;8.60;93.60;;;;;;5105247;28;20366;-73
2023/12/12 09:34:52;;;;;;;;;;;8.60;93.60;;;;;;5112569;28;20002;-73
2023/12/12 09:37:22;;;;;;;;;;;8.70;93.70;;;;;;5111261;28;19926;-73
2023/12/12 09:39:48;;;;;;;;;;;8.80;93.70;;;;;;5105225;28;20407;-73
2023/12/12 09:42:15;;;;;;;;;;;9.00;93.70;;;;;;5103650;28;19918;-73
2023/12/12 09:44:41;;;;;;;;;;;9.00;93.70;;;;;;5107812;28;20394;-73
2023/12/12 09:47:07;;;;;;;;;;;9.20;93.70;;;;;;5078138;28;19908;-73
2023/12/12 09:49:34;;;;;;;;;;;9.30;93.70;;;;;;5103975;28;20495;-73
2023/12/12 09:52:01;;;;;;;;;;;9.40;93.70;;;;;;5102991;28;20027;-73
2023/12/12 09:54:27;;;;;;;;;;;9.40;93.60;;;;;;5107972;28;19926;-73
2023/12/12 09:56:54;;;;;;;;;;;9.50;93.60;;;;;;5105149;28;19908;-73
2023/12/12 09:59:19;;;;;;;;;;;9.60;93.60;;;;;;5078342;28;19957;-73
2023/12/12 10:01:46;;;;;;;;;;;9.70;93.70;;;;;;5113572;28;19915;-73
2023/12/12 10:04:14;;;;;;;;;;;9.70;93.70;;;;;;5113938;28;20006;-73
2023/12/12 10:06:46;;;;;;;;;;;9.90;93.70;;;;;;5114013;28;19914;-73
2023/12/12 10:09:11;;;;;;;;;;;10.00;93.70;;;;;;5114081;28;19947;-72
2023/12/12 10:11:37;;;;;;;;;;;10.10;93.80;;;;;;5114145;28;19950;-73
2023/12/12 10:14:02;;;;;;;;;;;10.20;93.70;;;;;;5113872;28;20302;-72
2023/12/12 10:16:30;;;;;;;;;;;10.30;93.60;;;;;;5114101;28;20006;-73
2023/12/12 10:19:01;;;;;;;;;;;10.30;93.60;;;;;;5112422;28;19984;-73
2023/12/12 10:21:27;;;;;;;;;;;10.30;93.60;;;;;;5111991;28;20375;-73
2023/12/12 10:23:53;;;;;;;;;;;10.40;93.60;;;;;;5112258;28;19908;-74
2023/12/12 10:26:26;;;;;;;;;;;10.40;93.60;;;;;;5096975;28;19927;-73
2023/12/12 10:28:54;;;;;;;;;;;10.40;93.60;;;;;;5096519;28;20518;-73
2023/12/12 10:31:20;;;;;;;;;;;10.40;93.70;;;;;;5115367;28;19903;-73
2023/12/12 10:33:46;;;;;;;;;;;10.50;93.90;;;;;;5088869;28;19912;-74
2023/12/12 10:36:11;;;;;;;;;;;10.60;93.80;;;;;;5115754;28;20286;-73
2023/12/12 10:38:38;;;;;;;;;;;10.70;93.80;;;;;;5115059;28;20325;-74
2023/12/12 10:41:10;;;;;;;;;;;10.70;93.90;;;;;;5115533;28;19907;-74
2023/12/12 10:43:42;;;;;;;;;;;10.80;93.80;;;;;;5115383;28;19914;-73
2023/12/12 10:46:17;;;;;;;;;;;10.90;93.80;;;;;;5095006;28;19915;-74
2023/12/12 10:48:47;;;;;;;;;;;10.90;93.80;;;;;;5096712;28;19904;-74
2023/12/12 10:51:14;;;;;;;;;;;11.00;93.80;;;;;;5114929;28;20308;-74
2023/12/12 10:53:40;;;;;;;;;;;11.10;93.80;;;;;;5077144;28;19904;-74
2023/12/12 10:56:06;;;;;;;;;;;11.20;93.80;;;;;;5107767;28;19912;-76
2023/12/12 10:58:31;;;;;;;;;;;11.20;93.70;;;;;;5104046;28;19953;-75
2023/12/12 11:00:58;;;;;;;;;;;11.20;93.70;;;;;;5097261;28;20498;-75
2023/12/12 11:03:24;;;;;;;;;;;11.30;93.70;;;;;;5102501;28;19908;-74
2023/12/12 11:05:50;;;;;;;;;;;11.40;93.80;;;;;;5113866;28;19918;-74
2023/12/12 11:08:16;;;;;;;;;;;11.40;93.80;;;;;;5115177;28;20264;-79
2023/12/12 11:10:41;;;;;;;;;;;11.50;93.80;;;;;;5115926;28;19910;-75
2023/12/12 11:13:07;;;;;;;;;;;11.60;93.80;;;;;;5114910;28;19917;-75
2023/12/12 11:15:33;;;;;;;;;;;11.70;93.70;;;;;;5115019;28;19904;-75
2023/12/12 11:17:59;;;;;;;;;;;11.60;93.70;;;;;;5096548;28;19912;-74
2023/12/12 11:20:25;;;;;;;;;;;11.70;93.70;;;;;;5096589;28;19973;-76
2023/12/12 11:22:51;;;;;;;;;;;11.60;93.60;;;;;;5079862;28;19912;-75
2023/12/12 11:25:20;;;;;;;;;;;11.60;93.60;;;;;;5115393;28;19923;-75
2023/12/12 11:27:47;;;;;;;;;;;11.60;93.60;;;;;;5115083;28;20378;-75
2023/12/12 11:30:12;;;;;;;;;;;11.60;93.60;;;;;;5097023;28;20264;-75
2023/12/12 11:32:41;;;;;;;;;;;11.60;93.70;;;;;;5096046;28;19991;-76
2023/12/12 11:35:24;;;;;;;;;;;11.60;93.70;;;;;;5115061;28;19903;-75
2023/12/12 11:37:49;;;;;;;;;;;11.60;93.70;;;;;;5114593;28;20457;-76
2023/12/12 11:40:15;;;;;;;;;;;11.60;93.60;;;;;;5114581;28;19919;-74
2023/12/12 11:42:41;;;;;;;;;;;11.60;93.70;;;;;;5114415;28;20279;-74
2023/12/12 11:45:07;;;;;;;;;;;11.60;93.70;;;;;;5095271;28;19912;-75
2023/12/12 11:47:32;;;;;;;;;;;11.70;93.80;;;;;;5114696;28;20004;-76
2023/12/12 11:50:10;;;;;;;;;;;11.70;93.80;;;;;;5096499;28;19988;-76
2023/12/12 11:52:39;;;;;;;;;;;11.80;93.80;;;;;;5096883;28;19910;-75
2023/12/12 11:55:11;;;;;;;;;;;11.80;93.80;;;;;;5096063;28;20342;-75
2023/12/12 11:57:37;;;;;;;;;;;11.80;93.70;;;;;;5114258;28;19994;-76
2023/12/12 12:00:03;;;;;;;;;;;11.80;93.70;;;;;;5095360;28;20660;-75
2023/12/12 12:02:29;;;;;;;;;;;11.80;93.70;;;;;;5095580;28;20006;-75
2023/12/12 12:04:55;;;;;;;;;;;11.80;93.70;;;;;;5078685;28;19953;-75
2023/12/12 12:07:21;;;;;;;;;;;11.80;93.70;;;;;;5114002;28;19915;-75
2023/12/12 12:09:47;;;;;;;;;;;11.90;93.70;;;;;;5085244;28;20010;-75
2023/12/12 12:12:16;;;;;;;;;;;11.80;93.70;;;;;;5093647;28;19927;-76
2023/12/12 12:14:41;;;;;;;;;;;11.80;93.70;;;;;;5076196;28;19908;-80
2023/12/12 12:17:08;;;;;;;;;;;11.80;93.70;;;;;;5093445;28;19912;-76
2023/12/12 12:19:33;;;;;;;;;;;11.80;93.70;;;;;;5088615;28;20227;-77
2023/12/12 12:22:09;;;;;;;;;;;11.80;93.70;;;;;;5096576;28;19904;-78
2023/12/12 12:24:41;;;;;;;;;;;11.80;93.70;;;;;;5093210;28;19921;-76
2023/12/12 12:27:08;;;;;;;;;;;11.80;93.70;;;;;;5071457;28;20263;-75
2023/12/12 12:29:33;;;;;;;;;;;11.80;93.70;;;;;;5078645;28;20248;-75
2023/12/12 12:32:11;;;;;;;;;;;11.80;93.70;;;;;;5091901;28;19912;-75
2023/12/12 12:34:38;;;;;;;;;;;11.90;93.70;;;;;;5093696;28;20267;-75
2023/12/12 12:37:03;;;;;;;;;;;11.80;93.70;;;;;;5093546;28;19904;-76
2023/12/12 12:39:29;;;;;;;;;;;11.80;93.70;;;;;;5093218;28;19908;-75
2023/12/12 12:41:55;;;;;;;;;;;11.80;93.70;;;;;;5093843;28;19904;-75
2023/12/12 12:44:21;;;;;;;;;;;11.90;93.80;;;;;;5093009;28;19911;-74
2023/12/12 12:46:53;;;;;;;;;;;11.90;93.80;;;;;;5092914;28;19908;-74
2023/12/12 12:49:18;;;;;;;;;;;11.90;93.80;;;;;;5092632;28;19912;-75
2023/12/12 12:51:47;;;;;;;;;;;11.90;93.80;;;;;;5092813;28;19912;-74
2023/12/12 12:54:14;;;;;;;;;;;11.90;93.80;;;;;;5092198;28;19933;-74
2023/12/12 12:56:40;;;;;;;;;;;11.90;93.80;;;;;;5091391;28;20612;-74
2023/12/12 12:59:07;;;;;;;;;;;11.90;93.80;;;;;;5092461;28;19908;-75
2023/12/12 13:01:33;;;;;;;;;;;11.80;93.70;;;;;;5093253;28;19987;-77
2023/12/12 13:03:58;;;;;;;;;;;11.80;93.80;;;;;;5091449;28;19987;-74
2023/12/12 13:06:25;;;;;;;;;;;11.90;93.80;;;;;;5093138;28;20007;-75
2023/12/12 13:08:50;;;;;;;;;;;11.90;93.80;;;;;;5092363;28;19953;-73
2023/12/12 13:11:16;;;;;;;;;;;11.90;93.80;;;;;;5097036;28;19920;-74
2023/12/12 13:13:41;;;;;;;;;;;11.90;93.80;;;;;;5096310;28;19958;-74
2023/12/12 13:16:07;;;;;;;;;;;11.90;93.80;;;;;;5090957;28;19908;-75
2023/12/12 13:18:33;;;;;;;;;;;11.90;93.80;;;;;;5091959;28;20241;-74
2023/12/12 13:20:58;;;;;;;;;;;11.90;93.80;;;;;;5090766;28;20320;-76
2023/12/12 13:23:24;;;;;;;;;;;11.90;93.80;;;;;;5096637;28;19912;-78
2023/12/12 13:25:50;;;;;;;;;;;11.90;93.80;;;;;;5104713;28;19916;-75
2023/12/12 13:28:15;;;;;;;;;;;11.90;93.80;;;;;;5117039;28;20336;-75
2023/12/12 13:30:41;;;;;;;;;;;11.90;93.80;;;;;;5117226;28;19908;-75
2023/12/12 13:33:09;;;;;;;;;;;11.90;93.70;;;;;;5116630;28;19948;-74
2023/12/12 13:35:35;;;;;;;;;;;11.90;93.70;;;;;;5098166;28;19911;-76
2023/12/12 13:38:01;;;;;;;;;;;11.90;93.80;;;;;;5117024;28;20252;-74
2023/12/12 13:40:26;;;;;;;;;;;11.90;93.70;;;;;;5098062;28;19907;-76
2023/12/12 13:42:52;;;;;;;;;;;11.90;93.80;;;;;;5098314;28;19968;-74
2023/12/12 13:45:18;;;;;;;;;;;11.90;93.80;;;;;;5116632;28;19914;-74
2023/12/12 13:47:44;;;;;;;;;;;11.90;93.80;;;;;;5098061;28;19945;-73
2023/12/12 13:50:09;;;;;;;;;;;11.90;93.80;;;;;;5116591;28;19946;-76
2023/12/12 13:52:35;;;;;;;;;;;11.90;93.80;;;;;;5098133;28;20006;-76
2023/12/12 13:55:01;;;;;;;;;;;11.90;93.80;;;;;;5116940;28;20398;-74
2023/12/12 13:57:26;;;;;;;;;;;11.90;93.80;;;;;;5098466;28;19907;-75
2023/12/12 13:59:52;;;;;;;;;;;11.90;94.00;;;;;;5115420;28;19951;-69
2023/12/12 14:02:18;;;;;;;;;;;11.90;93.90;;;;;;5115580;28;19951;-74
2023/12/12 14:04:43;;;;;;;;;;;11.80;93.80;;;;;;5098144;28;19952;-75
2023/12/12 14:07:09;;;;;;;;;;;11.90;93.80;;;;;;5116882;28;20194;-74
2023/12/12 14:09:35;;;;;;;;;;;11.80;93.80;;;;;;5098724;28;19910;-74
2023/12/12 14:12:01;;;;;;;;;;;11.80;93.80;;;;;;5098406;28;19980;-75
2023/12/12 14:14:27;;;;;;;;;;;11.90;94.00;;;;;;5116366;28;19971;-74